createdAt,value
2023-03-21T00:00:45.398Z,97839.75
2023-03-21T00:03:12.143Z,97855.28
2023-03-21T00:05:43.085Z,97845.22
2023-03-21T00:08:09.892Z,97817.50
2023-03-21T00:10:43.488Z,97813.88
2023-03-21T00:13:15.521Z,97798.41
2023-03-21T00:16:05.780Z,97796.38
2023-03-21T00:18:37.018Z,97801.81
2023-03-21T00:21:37.800Z,97787.03
2023-03-21T00:23:52.413Z,97778.50
2023-03-21T00:26:19.223Z,97797.66
2023-03-21T00:28:45.898Z,97786.78
2023-03-21T00:31:12.742Z,97773.59
2023-03-21T00:33:39.567Z,97783.69
2023-03-21T00:36:07.577Z,97788.59
2023-03-21T00:38:35.849Z,97785.72
2023-03-21T00:41:23.324Z,97783.69
2023-03-21T00:43:57.669Z,97766.38
2023-03-21T00:46:27.645Z,97770.59
2023-03-21T00:48:56.688Z,97753.00
2023-03-21T00:51:27.242Z,97756.66
2023-03-21T00:53:58.613Z,97740.59
2023-03-21T00:56:27.734Z,97752.22
2023-03-21T00:58:54.294Z,97743.69
2023-03-21T01:01:21.085Z,97741.38
2023-03-21T01:04:03.524Z,97728.34
2023-03-21T01:06:31.261Z,97736.63
2023-03-21T01:08:58.036Z,97734.03
2023-03-21T01:11:27.349Z,97722.66
2023-03-21T01:14:03.992Z,97706.13
2023-03-21T01:16:34.869Z,97714.88
2023-03-21T01:19:05.006Z,97714.88
2023-03-21T01:21:33.791Z,97702.50
2023-03-21T01:24:01.907Z,97697.63
2023-03-21T01:26:29.391Z,97685.69
2023-03-21T01:28:56.020Z,97669.38
2023-03-21T01:31:22.994Z,97667.09
2023-03-21T01:33:49.843Z,97672.75
2023-03-21T01:36:24.077Z,97662.66
2023-03-21T01:38:54.515Z,97665.81
2023-03-21T01:41:41.873Z,97669.84
2023-03-21T01:44:18.103Z,97660.63
2023-03-21T01:47:03.568Z,97665.53
2023-03-21T01:49:49.820Z,97660.34
2023-03-21T01:52:39.459Z,97663.34
2023-03-21T01:55:13.301Z,97649.22
2023-03-21T01:58:05.912Z,97645.03
2023-03-21T02:00:57.720Z,97644.78
2023-03-21T02:03:38.592Z,97632.13
2023-03-21T02:06:34.036Z,97637.31
2023-03-21T02:09:24.022Z,97622.81
2023-03-21T02:11:52.353Z,97633.41
2023-03-21T02:14:28.931Z,97634.44
2023-03-21T02:17:39.091Z,97610.91
2023-03-21T02:20:27.212Z,97626.19
2023-03-21T02:23:16.605Z,97611.41
2023-03-21T02:25:56.633Z,97603.63
2023-03-21T02:28:32.977Z,97606.44
2023-03-21T02:31:26.747Z,97600.97
2023-03-21T02:34:36.232Z,97606.03
2023-03-21T02:37:36.979Z,97588.94
2023-03-21T02:40:25.800Z,97593.38
2023-03-21T02:43:24.369Z,97585.88
2023-03-21T02:46:07.078Z,97569.38
2023-03-21T02:48:50.651Z,97573.22
2023-03-21T02:51:22.139Z,97576.28
2023-03-21T02:54:28.299Z,97558.72
2023-03-21T02:56:52.591Z,97556.91
2023-03-21T02:59:22.687Z,97552.00
2023-03-21T03:01:52.777Z,97562.09
2023-03-21T03:04:27.829Z,97559.09
2023-03-21T03:06:58.888Z,97552.06
2023-03-21T03:09:43.887Z,97531.47
2023-03-21T03:12:27.645Z,97529.66
2023-03-21T03:15:09.928Z,97525.78
2023-03-21T03:17:50.857Z,97524.53
2023-03-21T03:20:28.228Z,97527.94
2023-03-21T03:23:03.808Z,97513.56
2023-03-21T03:25:43.479Z,97512.59
2023-03-21T03:28:17.268Z,97515.59
2023-03-21T03:31:00.806Z,97520.19
2023-03-21T03:33:39.019Z,97516.34
2023-03-21T03:36:12.789Z,97487.28
2023-03-21T03:38:47.359Z,97485.16
2023-03-21T03:41:31.880Z,97475.19
2023-03-21T03:44:03.970Z,97465.72
2023-03-21T03:46:56.435Z,97468.28
2023-03-21T03:49:32.042Z,97453.84
2023-03-21T03:52:06.208Z,97457.31
2023-03-21T03:54:45.323Z,97455.69
2023-03-21T03:57:13.974Z,97438.22
2023-03-21T03:59:42.933Z,97432.94
2023-03-21T04:02:32.813Z,97442.72
2023-03-21T04:05:04.349Z,97436.66
2023-03-21T04:07:31.864Z,97433.09
2023-03-21T04:10:00.741Z,97426.97
2023-03-21T04:12:27.899Z,97411.78
2023-03-21T04:15:13.472Z,97398.19
2023-03-21T04:17:45.548Z,97395.59
2023-03-21T04:20:20.897Z,97390.16
2023-03-21T04:22:54.272Z,97371.44
2023-03-21T04:25:32.348Z,97376.81
2023-03-21T04:28:00.875Z,97363.81
2023-03-21T04:30:58.575Z,97352.41
2023-03-21T04:33:28.206Z,97353.81
2023-03-21T04:35:59.190Z,97360.06
2023-03-21T04:38:31.001Z,97343.00
2023-03-21T04:41:02.234Z,97341.47
2023-03-21T04:43:30.838Z,97330.34
2023-03-21T04:45:57.978Z,97317.41
2023-03-21T04:48:24.775Z,97333.22
2023-03-21T04:50:52.503Z,97314.22
2023-03-21T04:53:19.410Z,97302.28
2023-03-21T04:55:46.356Z,97298.34
2023-03-21T04:58:13.347Z,97302.75
2023-03-21T05:00:40.311Z,97295.00
2023-03-21T05:03:09.344Z,97290.38
2023-03-21T05:05:39.126Z,97286.94
2023-03-21T05:08:06.769Z,97291.81
2023-03-21T05:10:33.565Z,97298.22
2023-03-21T05:13:00.835Z,97283.75
2023-03-21T05:15:28.182Z,97285.00
2023-03-21T05:17:55.433Z,97283.75
2023-03-21T05:20:22.269Z,97270.53
2023-03-21T05:22:50.181Z,97285.28
2023-03-21T05:25:21.241Z,97285.22
2023-03-21T05:28:08.317Z,97287.41
2023-03-21T05:30:35.782Z,97296.22
2023-03-21T05:33:03.890Z,97295.19
2023-03-21T05:35:32.206Z,97307.34
2023-03-21T05:38:02.190Z,97302.28
2023-03-21T05:40:33.425Z,97304.25
2023-03-21T05:43:00.965Z,97316.63
2023-03-21T05:45:27.581Z,97316.38
2023-03-21T05:47:55.518Z,97313.50
2023-03-21T05:50:26.597Z,97332.75
2023-03-21T05:53:07.153Z,97329.59
2023-03-21T05:55:33.878Z,97329.59
2023-03-21T05:58:00.754Z,97333.13
2023-03-21T06:00:30.814Z,97346.19
2023-03-21T06:03:23.935Z,97335.03
2023-03-21T06:06:01.328Z,97344.25
2023-03-21T06:08:33.983Z,97345.69
2023-03-21T06:11:01.034Z,97350.47
2023-03-21T06:13:28.635Z,97354.66
2023-03-21T06:15:55.535Z,97372.41
2023-03-21T06:18:25.134Z,97381.44
2023-03-21T06:20:58.945Z,97381.31
2023-03-21T06:23:25.970Z,97386.88
2023-03-21T06:25:53.056Z,97412.50
2023-03-21T06:28:20.419Z,97411.31
2023-03-21T06:30:47.124Z,97416.41
2023-03-21T06:33:18.836Z,97415.38
2023-03-21T06:35:51.378Z,97417.38
2023-03-21T06:38:18.959Z,97413.69
2023-03-21T06:40:47.093Z,97428.19
2023-03-21T06:43:14.538Z,97430.34
2023-03-21T06:45:41.227Z,97444.88
2023-03-21T06:48:10.443Z,97443.09
2023-03-21T06:50:44.686Z,97430.91
2023-03-21T06:53:11.299Z,97400.56
2023-03-21T06:55:57.936Z,97428.34
2023-03-21T06:58:24.728Z,97438.63
2023-03-21T07:00:51.381Z,97444.03
2023-03-21T07:03:19.311Z,97452.44
2023-03-21T07:05:46.565Z,97444.97
2023-03-21T07:08:15.954Z,97450.47
2023-03-21T07:10:45.500Z,97432.59
2023-03-21T07:13:12.705Z,97458.44
2023-03-21T07:15:47.026Z,97464.84
2023-03-21T07:18:13.684Z,97480.75
2023-03-21T07:20:48.153Z,97479.84
2023-03-21T07:23:14.804Z,97482.66
2023-03-21T07:25:42.410Z,97485.31
2023-03-21T07:28:09.292Z,97508.13
2023-03-21T07:30:36.896Z,97504.78
2023-03-21T07:33:03.730Z,97522.22
2023-03-21T07:35:30.741Z,97528.72
2023-03-21T07:37:57.410Z,97515.81
2023-03-21T07:40:24.114Z,97531.16
2023-03-21T07:42:52.339Z,97531.72
2023-03-21T07:45:29.145Z,97516.34
2023-03-21T07:47:55.904Z,97510.44
2023-03-21T07:50:23.785Z,97517.25
2023-03-21T07:52:50.495Z,97519.84
2023-03-21T07:55:17.608Z,97532.75
2023-03-21T07:57:44.954Z,97536.09
2023-03-21T08:00:12.728Z,97533.06
2023-03-21T08:02:42.324Z,97532.28
2023-03-21T08:05:11.570Z,97544.38
2023-03-21T08:07:38.290Z,97541.94
2023-03-21T08:10:05.278Z,97528.31
2023-03-21T08:12:31.820Z,97498.19
2023-03-21T08:15:01.000Z,97507.38
2023-03-21T08:17:27.872Z,97501.34
2023-03-21T08:19:54.406Z,97510.88
2023-03-21T08:22:21.001Z,97522.16
2023-03-21T08:24:47.608Z,97521.75
2023-03-21T08:27:16.993Z,97522.88
2023-03-21T08:29:43.789Z,97539.22
2023-03-21T08:32:10.405Z,97525.56
2023-03-21T08:34:37.289Z,97519.63
2023-03-21T08:37:04.437Z,97521.31
2023-03-21T08:39:31.197Z,97519.03
2023-03-21T08:41:57.959Z,97530.19
2023-03-21T08:44:26.080Z,97533.09
2023-03-21T08:46:52.981Z,97517.66
2023-03-21T08:49:19.680Z,97522.06
2023-03-21T08:51:46.584Z,97490.16
2023-03-21T08:54:21.785Z,97457.72
2023-03-21T08:56:48.461Z,97412.91
2023-03-21T08:59:15.597Z,97387.22
2023-03-21T09:01:42.329Z,97362.59
2023-03-21T09:04:11.139Z,97339.41
2023-03-21T09:06:41.086Z,97328.81
2023-03-21T09:09:09.394Z,97303.78
2023-03-21T09:11:36.142Z,97297.03
2023-03-21T09:14:02.829Z,97290.31
2023-03-21T09:16:29.573Z,97274.25
2023-03-21T09:18:57.106Z,97262.97
2023-03-21T09:21:24.234Z,97245.84
2023-03-21T09:23:52.982Z,97254.81
2023-03-21T09:26:20.114Z,97237.06
2023-03-21T09:28:47.443Z,97263.06
2023-03-21T09:31:16.617Z,97273.78
2023-03-21T09:33:43.820Z,97266.31
2023-03-21T09:36:15.544Z,97257.88
2023-03-21T09:38:46.139Z,97232.22
2023-03-21T09:41:27.933Z,97215.19
2023-03-21T09:44:25.461Z,97229.44
2023-03-21T09:46:58.388Z,97216.13
2023-03-21T09:49:31.471Z,97205.28
2023-03-21T09:52:06.598Z,97188.63
2023-03-21T09:54:37.996Z,97180.97
2023-03-21T09:57:19.711Z,97185.41
2023-03-21T09:59:48.556Z,97177.97
2023-03-21T10:02:38.347Z,97173.69
2023-03-21T10:05:32.065Z,97157.28
2023-03-21T10:08:04.695Z,97137.75
2023-03-21T10:10:37.740Z,97132.50
2023-03-21T10:13:13.931Z,97133.09
2023-03-21T10:15:40.977Z,97146.56
2023-03-21T10:18:08.596Z,97127.78
2023-03-21T10:20:37.650Z,97112.50
2023-03-21T10:23:07.194Z,97126.16
2023-03-21T10:25:38.359Z,97106.28
2023-03-21T10:28:08.152Z,97092.00
2023-03-21T10:30:37.717Z,97100.59
2023-03-21T10:33:09.519Z,97093.97
2023-03-21T10:35:40.340Z,97098.53
2023-03-21T10:38:15.789Z,97083.28
2023-03-21T10:40:42.492Z,97077.00
2023-03-21T10:43:37.913Z,97067.22
2023-03-21T10:46:08.671Z,97070.03
2023-03-21T10:48:37.478Z,97066.22
2023-03-21T10:51:07.171Z,97100.81
2023-03-21T10:53:39.841Z,97113.84
2023-03-21T10:56:09.615Z,97103.69
2023-03-21T10:58:42.842Z,97104.03
2023-03-21T11:01:15.070Z,97094.34
2023-03-21T11:03:47.300Z,97075.91
2023-03-21T11:06:22.559Z,97073.34
2023-03-21T11:08:54.098Z,97056.34
2023-03-21T11:11:27.701Z,97015.69
2023-03-21T11:14:07.363Z,96990.38
2023-03-21T11:16:41.486Z,96947.63
2023-03-21T11:19:17.765Z,96938.91
2023-03-21T11:21:44.883Z,96943.44
2023-03-21T11:24:15.941Z,96949.81
2023-03-21T11:26:48.260Z,96936.63
2023-03-21T11:29:29.745Z,96940.72
2023-03-21T11:32:17.034Z,96940.91
2023-03-21T11:35:02.254Z,96931.22
2023-03-21T11:37:33.937Z,96939.31
2023-03-21T11:40:26.099Z,96931.41
2023-03-21T11:42:54.977Z,96941.56
2023-03-21T11:45:26.000Z,96950.63
2023-03-21T11:47:57.537Z,96918.41
2023-03-21T11:50:48.840Z,96896.41
2023-03-21T11:53:28.108Z,96884.34
2023-03-21T11:56:20.480Z,96888.25
2023-03-21T11:58:56.318Z,96869.88
2023-03-21T12:01:36.693Z,96854.06
2023-03-21T12:04:18.628Z,96850.72
2023-03-21T12:07:02.447Z,96854.34
2023-03-21T12:09:37.392Z,96841.13
2023-03-21T12:12:13.234Z,96829.31
2023-03-21T12:14:51.564Z,96844.47
2023-03-21T12:17:32.844Z,96845.00
2023-03-21T12:20:25.838Z,96844.19
2023-03-21T12:23:15.783Z,96836.81
2023-03-21T12:25:47.663Z,96861.63
2023-03-21T12:28:32.477Z,96860.13
2023-03-21T12:31:25.254Z,96868.50
2023-03-21T12:34:10.149Z,96898.16
2023-03-21T12:36:48.645Z,96903.25
2023-03-21T12:39:28.975Z,96864.84
2023-03-21T12:42:10.584Z,96855.72
2023-03-21T12:44:52.003Z,96853.72
2023-03-21T12:47:24.095Z,96843.13
2023-03-21T12:49:56.710Z,96822.59
2023-03-21T12:52:32.614Z,96794.63
2023-03-21T12:55:01.894Z,96779.53
2023-03-21T12:57:33.850Z,96777.69
2023-03-21T13:00:14.009Z,96772.34
2023-03-21T13:02:44.694Z,96748.97
2023-03-21T13:05:34.306Z,96722.47
2023-03-21T13:08:11.468Z,96713.19
2023-03-21T13:10:40.494Z,96712.06
2023-03-21T13:13:27.398Z,96706.22
2023-03-21T13:15:58.827Z,96705.03
2023-03-21T13:18:38.746Z,96717.69
2023-03-21T13:21:26.224Z,96694.06
2023-03-21T13:24:20.513Z,96684.25
2023-03-21T13:26:55.459Z,96691.13
2023-03-21T13:29:44.823Z,96682.16
2023-03-21T13:32:34.641Z,96660.25
2023-03-21T13:35:27.922Z,96633.53
2023-03-21T13:37:58.600Z,96607.50
2023-03-21T13:40:28.625Z,96603.84
2023-03-21T13:42:59.664Z,96610.44
2023-03-21T13:45:55.818Z,96624.22
2023-03-21T13:48:31.103Z,96632.31
2023-03-21T13:51:05.738Z,96635.06
2023-03-21T13:53:44.447Z,96617.34
2023-03-21T13:56:17.142Z,96654.38
2023-03-21T13:58:43.671Z,96664.91
2023-03-21T14:01:26.676Z,96686.78
2023-03-21T14:04:24.036Z,96674.41
2023-03-21T14:07:01.352Z,96674.22
2023-03-21T14:09:38.271Z,96666.72
2023-03-21T14:12:11.481Z,96655.22
2023-03-21T14:14:41.876Z,96651.44
2023-03-21T14:17:23.026Z,96648.69
2023-03-21T14:20:01.021Z,96658.56
2023-03-21T14:22:29.874Z,96678.47
2023-03-21T14:24:59.513Z,96671.13
2023-03-21T14:27:31.588Z,96677.09
2023-03-21T14:30:01.305Z,96686.72
2023-03-21T14:32:30.264Z,96700.94
2023-03-21T14:34:59.616Z,96702.78
2023-03-21T14:37:34.082Z,96713.63
2023-03-21T14:40:03.528Z,96701.59
2023-03-21T14:42:34.950Z,96715.28
2023-03-21T14:45:14.647Z,96718.50
2023-03-21T14:47:41.315Z,96709.72
2023-03-21T14:50:11.120Z,96731.94
2023-03-21T14:52:38.736Z,96734.72
2023-03-21T14:55:14.398Z,96728.94
2023-03-21T14:57:41.122Z,96723.84
2023-03-21T15:00:18.277Z,96735.25
2023-03-21T15:02:46.412Z,96717.53
2023-03-21T15:05:23.210Z,96730.06
2023-03-21T15:07:58.970Z,96713.22
2023-03-21T15:10:28.604Z,96706.91
2023-03-21T15:13:12.178Z,96674.47
2023-03-21T15:15:39.362Z,96660.16
2023-03-21T15:18:14.690Z,96647.41
2023-03-21T15:20:42.056Z,96661.31
2023-03-21T15:23:14.417Z,96650.78
2023-03-21T15:25:42.282Z,96660.25
2023-03-21T15:28:13.893Z,96669.28
2023-03-21T15:30:48.219Z,96672.38
2023-03-21T15:33:15.378Z,96667.03
2023-03-21T15:35:48.432Z,96675.03
2023-03-21T15:38:49.018Z,96687.13
2023-03-21T15:41:21.661Z,96686.13
2023-03-21T15:43:54.303Z,96693.84
2023-03-21T15:46:40.588Z,96689.31
2023-03-21T15:49:21.206Z,96698.28
2023-03-21T15:51:53.214Z,96697.63
2023-03-21T15:54:27.217Z,96700.22
2023-03-21T15:56:56.092Z,96698.19
2023-03-21T15:59:26.766Z,96707.84
2023-03-21T16:01:53.572Z,96698.84
2023-03-21T16:04:20.506Z,96694.16
2023-03-21T16:07:17.092Z,96678.88
2023-03-21T16:09:46.833Z,96672.16
2023-03-21T16:12:17.567Z,96663.09
2023-03-21T16:14:47.407Z,96647.03
2023-03-21T16:17:27.703Z,96631.88
2023-03-21T16:19:55.479Z,96625.63
2023-03-21T16:22:22.377Z,96616.63
2023-03-21T16:24:49.137Z,96630.28
2023-03-21T16:27:18.818Z,96656.56
2023-03-21T16:29:45.766Z,96666.75
2023-03-21T16:32:18.066Z,96663.16
2023-03-21T16:34:46.396Z,96671.47
2023-03-21T16:37:15.905Z,96676.09
2023-03-21T16:39:43.110Z,96684.38
2023-03-21T16:42:12.670Z,96703.88
2023-03-21T16:44:40.707Z,96708.09
2023-03-21T16:47:19.237Z,96687.06
2023-03-21T16:49:46.077Z,96688.53
2023-03-21T16:52:14.212Z,96694.75
2023-03-21T16:54:41.830Z,96703.81
2023-03-21T16:57:22.839Z,96688.97
2023-03-21T16:59:49.524Z,96690.44
2023-03-21T17:02:18.779Z,96711.59
2023-03-21T17:04:46.135Z,96706.94
2023-03-21T17:07:16.382Z,96714.84
2023-03-21T17:09:43.891Z,96724.59
2023-03-21T17:12:13.924Z,96724.31
2023-03-21T17:14:44.726Z,96723.72
2023-03-21T17:17:16.307Z,96714.28
2023-03-21T17:19:43.256Z,96700.50
2023-03-21T17:22:12.556Z,96699.59
2023-03-21T17:24:40.659Z,96697.50
2023-03-21T17:27:08.442Z,96688.31
2023-03-21T17:29:35.533Z,96672.53
2023-03-21T17:32:02.172Z,96667.22
2023-03-21T17:34:28.811Z,96666.59
2023-03-21T17:36:55.594Z,96666.34
2023-03-21T17:39:24.507Z,96661.16
2023-03-21T17:41:52.079Z,96668.03
2023-03-21T17:44:19.529Z,96660.91
2023-03-21T17:46:46.977Z,96658.72
2023-03-21T17:49:16.018Z,96654.00
2023-03-21T17:51:43.443Z,96656.28
2023-03-21T17:54:10.194Z,96650.31
2023-03-21T17:56:41.849Z,96654.75
2023-03-21T17:59:13.031Z,96654.50
2023-03-21T18:01:39.754Z,96654.19
2023-03-21T18:04:06.447Z,96659.38
2023-03-21T18:06:34.522Z,96660.91
2023-03-21T18:09:07.049Z,96662.75
2023-03-21T18:11:33.934Z,96668.69
2023-03-21T18:14:14.352Z,96676.47
2023-03-21T18:16:42.517Z,96674.13
2023-03-21T18:19:12.809Z,96673.06
2023-03-21T18:21:40.804Z,96668.16
2023-03-21T18:24:07.763Z,96658.63
2023-03-21T18:26:34.460Z,96658.06
2023-03-21T18:30:03.885Z,96660.50
2023-03-21T18:32:02.793Z,96673.97
2023-03-21T18:34:32.130Z,96661.91
2023-03-21T18:36:58.894Z,96662.84
2023-03-21T18:39:25.718Z,96659.22
2023-03-21T18:41:57.085Z,96651.78
2023-03-21T18:44:25.767Z,96650.91
2023-03-21T18:46:52.733Z,96649.41
2023-03-21T18:52:07.903Z,96632.06
2023-03-21T18:54:35.792Z,96620.63
2023-03-21T18:59:51.150Z,96596.22
2023-03-21T19:02:19.456Z,96601.69
2023-03-21T19:04:46.496Z,96591.91
2023-03-21T19:07:13.458Z,96580.44
2023-03-21T19:10:01.482Z,96578.78
2023-03-21T19:12:27.599Z,96571.34
2023-03-21T19:14:54.900Z,96569.94
2023-03-21T19:20:09.898Z,96558.66
2023-03-21T19:22:36.793Z,96564.25
2023-03-21T19:25:05.561Z,96559.03
2023-03-21T19:27:34.705Z,96558.38
2023-03-21T19:30:13.983Z,96557.00
2023-03-21T19:32:41.532Z,96550.75
2023-03-21T19:35:08.625Z,96547.84
2023-03-21T19:37:36.435Z,96547.78
2023-03-21T19:40:07.235Z,96545.66
2023-03-21T19:42:36.373Z,96552.81
2023-03-21T19:45:04.825Z,96547.91
2023-03-21T19:47:31.749Z,96546.97
2023-03-21T19:52:46.186Z,96549.09
2023-03-21T19:55:15.002Z,96555.06
2023-03-21T19:57:41.893Z,96538.19
2023-03-21T20:00:11.432Z,96535.91
2023-03-21T20:02:38.418Z,96532.75
2023-03-21T20:05:07.118Z,96522.88
2023-03-21T20:07:34.008Z,96516.81
2023-03-21T20:10:00.823Z,96514.53
2023-03-21T20:12:27.713Z,96506.00
2023-03-21T20:15:06.942Z,96498.41
2023-03-21T20:17:42.247Z,96493.78
2023-03-21T20:20:10.198Z,96494.56
2023-03-21T20:23:05.127Z,96485.41
2023-03-21T20:25:23.441Z,96488.00
2023-03-21T20:28:09.299Z,96493.22
2023-03-21T20:30:37.277Z,96495.75
2023-03-21T20:33:04.384Z,96503.63
2023-03-21T20:36:16.509Z,96507.97
2023-03-21T20:38:20.687Z,96521.03
2023-03-21T20:40:48.079Z,96522.88
2023-03-21T20:44:06.490Z,96531.13
2023-03-21T20:46:06.789Z,96530.56
2023-03-21T20:48:34.488Z,96531.13
2023-03-21T20:52:14.702Z,96540.16
2023-03-21T20:53:57.357Z,96543.19
2023-03-21T20:56:24.433Z,96551.47
2023-03-21T20:59:04.824Z,96548.53
2023-03-21T21:01:38.523Z,96545.53
2023-03-21T21:04:05.777Z,96547.56
2023-03-21T21:06:33.082Z,96545.13
2023-03-21T21:09:00.306Z,96546.97
2023-03-21T21:12:05.227Z,96545.31
2023-03-21T21:14:15.762Z,96549.66
2023-03-21T21:16:42.796Z,96552.13
2023-03-21T21:19:09.914Z,96548.16
2023-03-21T21:21:37.619Z,96548.34
2023-03-21T21:24:07.493Z,96537.38
2023-03-21T21:26:34.965Z,96530.88
2023-03-21T21:29:01.738Z,96536.09
2023-03-21T21:31:28.690Z,96536.41
2023-03-21T21:33:55.641Z,96529.97
2023-03-21T21:36:22.776Z,96529.53
2023-03-21T21:38:49.714Z,96527.13
2023-03-21T21:41:21.937Z,96529.38
2023-03-21T21:43:48.917Z,96521.97
2023-03-21T21:46:15.903Z,96527.59
2023-03-21T21:48:43.629Z,96515.72
2023-03-21T21:51:10.647Z,96515.25
2023-03-21T21:53:38.948Z,96512.53
2023-03-21T21:56:06.407Z,96518.66
2023-03-21T21:58:34.068Z,96511.31
2023-03-21T22:01:02.046Z,96508.78
2023-03-21T22:03:36.481Z,96505.56
2023-03-21T22:06:04.693Z,96504.97
2023-03-21T22:08:31.649Z,96506.19
2023-03-21T22:11:00.691Z,96507.59
2023-03-21T22:13:27.891Z,96511.72
2023-03-21T22:15:54.885Z,96501.66
2023-03-21T22:18:22.292Z,96507.59
2023-03-21T22:20:48.885Z,96503.78
2023-03-21T22:23:15.499Z,96500.63
2023-03-21T22:25:43.392Z,96507.78
2023-03-21T22:28:10.020Z,96514.00
2023-03-21T22:30:36.700Z,96513.66
2023-03-21T22:33:09.523Z,96515.94
2023-03-21T22:35:38.526Z,96522.50
2023-03-21T22:38:05.180Z,96522.94
2023-03-21T22:40:31.753Z,96520.81
2023-03-21T22:42:58.348Z,96518.13
2023-03-21T22:45:24.979Z,96529.34
2023-03-21T22:47:51.569Z,96532.69
2023-03-21T22:50:18.143Z,96537.41
2023-03-21T22:52:44.737Z,96544.25
2023-03-21T22:55:12.866Z,96547.75
2023-03-21T22:57:39.473Z,96551.13
2023-03-21T23:00:14.423Z,96550.97
2023-03-21T23:02:42.628Z,96548.84
2023-03-21T23:05:10.358Z,96544.28
2023-03-21T23:07:37.544Z,96546.41
2023-03-21T23:10:06.431Z,96543.69
2023-03-21T23:12:33.398Z,96551.78
2023-03-21T23:15:02.269Z,96545.38
2023-03-21T23:17:29.117Z,96549.34
2023-03-21T23:19:55.732Z,96542.63
2023-03-21T23:22:22.412Z,96553.59
2023-03-21T23:24:49.155Z,96542.34
2023-03-21T23:27:18.219Z,96542.97
2023-03-21T23:29:45.432Z,96543.25
2023-03-21T23:32:12.013Z,96540.06
2023-03-21T23:34:38.678Z,96539.44
2023-03-21T23:37:06.860Z,96548.16
2023-03-21T23:39:35.143Z,96546.75
2023-03-21T23:42:01.860Z,96545.09
2023-03-21T23:44:28.536Z,96548.88
2023-03-21T23:46:55.267Z,96547.06
2023-03-21T23:49:21.815Z,96535.19
2023-03-21T23:51:48.515Z,96541.75
2023-03-21T23:54:15.472Z,96529.56
2023-03-21T23:56:42.295Z,96542.06
2023-03-21T23:59:09.349Z,96541.91
